sensor_id;sensor_type;location;lat;lon;timestamp;temperature;humidity
15926;DHT22;8062;53.882;10.642;2022-08-18T00:00:31;17.80;99.90
15926;DHT22;8062;53.882;10.642;2022-08-18T00:01:32;17.80;99.90
15926;DHT22;8062;53.882;10.642;2022-08-18T00:02:33;17.80;99.90
15926;DHT22;8062;53.882;10.642;2022-08-18T00:03:35;17.80;99.90
15926;DHT22;8062;53.882;10.642;2022-08-18T00:04:36;17.80;99.90
15926;DHT22;8062;53.882;10.642;2022-08-18T00:05:38;17.80;99.90
15926;DHT22;8062;53.882;10.642;2022-08-18T00:06:40;17.80;99.90
15926;DHT22;8062;53.882;10.642;2022-08-18T00:07:41;17.80;99.90
15926;DHT22;8062;53.882;10.642;2022-08-18T00:08:43;17.80;99.90
15926;DHT22;8062;53.882;10.642;2022-08-18T00:09:44;17.90;99.90
15926;DHT22;8062;53.882;10.642;2022-08-18T00:10:45;17.90;99.90
15926;DHT22;8062;53.882;10.642;2022-08-18T00:11:46;17.90;99.90
15926;DHT22;8062;53.882;10.642;2022-08-18T00:12:47;17.90;99.90
15926;DHT22;8062;53.882;10.642;2022-08-18T00:13:48;17.90;99.90
15926;DHT22;8062;53.882;10.642;2022-08-18T00:14:49;17.90;99.90
15926;DHT22;8062;53.882;10.642;2022-08-18T00:15:50;17.90;99.90
15926;DHT22;8062;53.882;10.642;2022-08-18T00:16:53;17.90;99.90
15926;DHT22;8062;53.882;10.642;2022-08-18T00:17:54;17.90;99.90
15926;DHT22;8062;53.882;10.642;2022-08-18T00:18:55;17.90;99.90
15926;DHT22;8062;53.882;10.642;2022-08-18T00:19:56;17.90;99.90
15926;DHT22;8062;53.882;10.642;2022-08-18T00:20:57;17.90;99.90
15926;DHT22;8062;53.882;10.642;2022-08-18T00:21:58;17.90;99.90
15926;DHT22;8062;53.882;10.642;2022-08-18T00:22:59;17.90;99.90
15926;DHT22;8062;53.882;10.642;2022-08-18T00:24:00;17.90;99.90
15926;DHT22;8062;53.882;10.642;2022-08-18T00:25:02;17.90;99.90
15926;DHT22;8062;53.882;10.642;2022-08-18T00:26:04;17.90;99.90
15926;DHT22;8062;53.882;10.642;2022-08-18T00:27:05;18.00;99.90
15926;DHT22;8062;53.882;10.642;2022-08-18T00:28:06;18.00;99.90
15926;DHT22;8062;53.882;10.642;2022-08-18T00:29:07;17.90;99.90
15926;DHT22;8062;53.882;10.642;2022-08-18T00:30:12;17.90;99.90
15926;DHT22;8062;53.882;10.642;2022-08-18T00:31:13;17.90;99.90
15926;DHT22;8062;53.882;10.642;2022-08-18T00:32:17;17.90;99.90
15926;DHT22;8062;53.882;10.642;2022-08-18T00:33:18;17.90;99.90
15926;DHT22;8062;53.882;10.642;2022-08-18T00:34:19;17.90;99.90
15926;DHT22;8062;53.882;10.642;2022-08-18T00:36:27;17.90;99.90
15926;DHT22;8062;53.882;10.642;2022-08-18T00:37:28;17.90;99.90
15926;DHT22;8062;53.882;10.642;2022-08-18T00:38:29;17.90;99.90
15926;DHT22;8062;53.882;10.642;2022-08-18T00:39:30;17.90;99.90
15926;DHT22;8062;53.882;10.642;2022-08-18T00:40:43;17.90;99.90
15926;DHT22;8062;53.882;10.642;2022-08-18T00:41:45;17.90;99.90
15926;DHT22;8062;53.882;10.642;2022-08-18T00:42:52;17.90;99.90
15926;DHT22;8062;53.882;10.642;2022-08-18T00:43:54;17.80;99.90
15926;DHT22;8062;53.882;10.642;2022-08-18T00:44:58;17.80;99.90
15926;DHT22;8062;53.882;10.642;2022-08-18T00:45:59;17.80;99.90
15926;DHT22;8062;53.882;10.642;2022-08-18T00:47:01;17.90;99.90
15926;DHT22;8062;53.882;10.642;2022-08-18T00:48:04;17.90;99.90
15926;DHT22;8062;53.882;10.642;2022-08-18T00:49:05;17.90;99.90
15926;DHT22;8062;53.882;10.642;2022-08-18T00:50:07;17.90;99.90
15926;DHT22;8062;53.882;10.642;2022-08-18T00:51:12;17.90;99.90
15926;DHT22;8062;53.882;10.642;2022-08-18T00:52:15;17.90;99.90
15926;DHT22;8062;53.882;10.642;2022-08-18T00:53:17;17.90;99.90
15926;DHT22;8062;53.882;10.642;2022-08-18T00:54:29;17.90;99.90
15926;DHT22;8062;53.882;10.642;2022-08-18T00:55:32;17.90;99.90
15926;DHT22;8062;53.882;10.642;2022-08-18T00:56:37;17.90;99.90
15926;DHT22;8062;53.882;10.642;2022-08-18T00:57:40;17.90;99.90
15926;DHT22;8062;53.882;10.642;2022-08-18T00:58:48;17.90;99.90
15926;DHT22;8062;53.882;10.642;2022-08-18T01:00:00;17.90;99.90
15926;DHT22;8062;53.882;10.642;2022-08-18T01:01:15;17.90;99.90
15926;DHT22;8062;53.882;10.642;2022-08-18T01:02:25;17.90;99.90
15926;DHT22;8062;53.882;10.642;2022-08-18T01:03:28;17.90;99.90
15926;DHT22;8062;53.882;10.642;2022-08-18T01:04:36;17.90;99.90
15926;DHT22;8062;53.882;10.642;2022-08-18T01:05:44;17.90;99.90
15926;DHT22;8062;53.882;10.642;2022-08-18T01:06:55;17.80;99.90
15926;DHT22;8062;53.882;10.642;2022-08-18T01:07:58;17.80;99.90
15926;DHT22;8062;53.882;10.642;2022-08-18T01:08:59;17.80;99.90
15926;DHT22;8062;53.882;10.642;2022-08-18T01:10:01;17.80;99.90
15926;DHT22;8062;53.882;10.642;2022-08-18T01:11:05;17.80;99.90
15926;DHT22;8062;53.882;10.642;2022-08-18T01:12:06;17.80;99.90
15926;DHT22;8062;53.882;10.642;2022-08-18T01:13:08;17.80;99.90
15926;DHT22;8062;53.882;10.642;2022-08-18T01:14:11;17.80;99.90
15926;DHT22;8062;53.882;10.642;2022-08-18T01:15:17;17.80;99.90
15926;DHT22;8062;53.882;10.642;2022-08-18T01:16:19;17.80;99.90
15926;DHT22;8062;53.882;10.642;2022-08-18T01:17:40;17.80;99.90
15926;DHT22;8062;53.882;10.642;2022-08-18T01:19:00;17.80;99.90
15926;DHT22;8062;53.882;10.642;2022-08-18T01:20:26;17.80;99.90
15926;DHT22;8062;53.882;10.642;2022-08-18T01:21:51;17.80;99.90
15926;DHT22;8062;53.882;10.642;2022-08-18T01:23:11;17.80;99.90
15926;DHT22;8062;53.882;10.642;2022-08-18T01:24:13;17.80;99.90
15926;DHT22;8062;53.882;10.642;2022-08-18T01:25:16;17.70;99.90
15926;DHT22;8062;53.882;10.642;2022-08-18T01:26:37;17.80;99.90
15926;DHT22;8062;53.882;10.642;2022-08-18T01:27:40;17.70;99.90
15926;DHT22;8062;53.882;10.642;2022-08-18T01:28:43;17.70;99.90
15926;DHT22;8062;53.882;10.642;2022-08-18T01:29:47;17.70;99.90
15926;DHT22;8062;53.882;10.642;2022-08-18T01:30:52;17.70;99.90
15926;DHT22;8062;53.882;10.642;2022-08-18T01:31:57;17.70;99.90
15926;DHT22;8062;53.882;10.642;2022-08-18T01:32:58;17.70;99.90
15926;DHT22;8062;53.882;10.642;2022-08-18T01:33:59;17.70;99.90
15926;DHT22;8062;53.882;10.642;2022-08-18T01:35:01;17.70;99.90
15926;DHT22;8062;53.882;10.642;2022-08-18T01:36:14;17.70;99.90
15926;DHT22;8062;53.882;10.642;2022-08-18T01:37:18;17.70;99.90
15926;DHT22;8062;53.882;10.642;2022-08-18T01:38:21;17.70;99.90
15926;DHT22;8062;53.882;10.642;2022-08-18T01:39:26;17.70;99.90
15926;DHT22;8062;53.882;10.642;2022-08-18T01:40:27;17.80;99.90
15926;DHT22;8062;53.882;10.642;2022-08-18T01:41:28;17.80;99.90
15926;DHT22;8062;53.882;10.642;2022-08-18T01:42:29;17.80;99.90
15926;DHT22;8062;53.882;10.642;2022-08-18T01:43:30;17.70;99.90
15926;DHT22;8062;53.882;10.642;2022-08-18T01:44:32;17.70;99.90
15926;DHT22;8062;53.882;10.642;2022-08-18T01:45:33;17.80;99.90
15926;DHT22;8062;53.882;10.642;2022-08-18T01:46:36;17.80;99.90
15926;DHT22;8062;53.882;10.642;2022-08-18T01:47:37;17.80;99.90
15926;DHT22;8062;53.882;10.642;2022-08-18T01:48:40;17.80;99.90
15926;DHT22;8062;53.882;10.642;2022-08-18T01:49:42;17.80;99.90
15926;DHT22;8062;53.882;10.642;2022-08-18T01:50:43;17.80;99.90
15926;DHT22;8062;53.882;10.642;2022-08-18T01:51:45;17.80;99.90
15926;DHT22;8062;53.882;10.642;2022-08-18T01:52:46;17.80;99.90
15926;DHT22;8062;53.882;10.642;2022-08-18T01:53:47;17.80;99.90
15926;DHT22;8062;53.882;10.642;2022-08-18T01:54:49;17.80;99.90
15926;DHT22;8062;53.882;10.642;2022-08-18T01:55:50;17.80;99.90
15926;DHT22;8062;53.882;10.642;2022-08-18T01:56:51;17.80;99.90
15926;DHT22;8062;53.882;10.642;2022-08-18T01:57:54;17.80;99.90
15926;DHT22;8062;53.882;10.642;2022-08-18T01:58:55;17.80;99.90
15926;DHT22;8062;53.882;10.642;2022-08-18T01:59:56;17.80;99.90
15926;DHT22;8062;53.882;10.642;2022-08-18T02:01:00;17.80;99.90
15926;DHT22;8062;53.882;10.642;2022-08-18T02:02:02;17.80;99.90
15926;DHT22;8062;53.882;10.642;2022-08-18T02:03:05;17.80;99.90
15926;DHT22;8062;53.882;10.642;2022-08-18T02:04:08;17.80;99.90
15926;DHT22;8062;53.882;10.642;2022-08-18T02:05:17;17.80;99.90
15926;DHT22;8062;53.882;10.642;2022-08-18T02:06:20;17.80;99.90
15926;DHT22;8062;53.882;10.642;2022-08-18T02:07:21;17.80;99.90
15926;DHT22;8062;53.882;10.642;2022-08-18T02:08:22;17.80;99.90
15926;DHT22;8062;53.882;10.642;2022-08-18T02:09:23;17.80;99.90
15926;DHT22;8062;53.882;10.642;2022-08-18T02:10:24;17.80;99.90
15926;DHT22;8062;53.882;10.642;2022-08-18T02:11:27;17.80;99.90
15926;DHT22;8062;53.882;10.642;2022-08-18T02:12:28;17.80;99.90
15926;DHT22;8062;53.882;10.642;2022-08-18T02:13:29;17.80;99.90
15926;DHT22;8062;53.882;10.642;2022-08-18T02:14:30;17.80;99.90
15926;DHT22;8062;53.882;10.642;2022-08-18T02:15:31;17.70;99.90
15926;DHT22;8062;53.882;10.642;2022-08-18T02:16:32;17.70;99.90
15926;DHT22;8062;53.882;10.642;2022-08-18T02:17:41;17.70;99.90
15926;DHT22;8062;53.882;10.642;2022-08-18T02:18:42;17.70;99.90
15926;DHT22;8062;53.882;10.642;2022-08-18T02:19:45;17.70;99.90
15926;DHT22;8062;53.882;10.642;2022-08-18T02:20:47;17.70;99.90
15926;DHT22;8062;53.882;10.642;2022-08-18T02:21:49;17.70;99.90
15926;DHT22;8062;53.882;10.642;2022-08-18T02:22:51;17.70;99.90
15926;DHT22;8062;53.882;10.642;2022-08-18T02:23:53;17.70;99.90
15926;DHT22;8062;53.882;10.642;2022-08-18T02:24:56;17.70;99.90
15926;DHT22;8062;53.882;10.642;2022-08-18T02:25:57;17.60;99.90
15926;DHT22;8062;53.882;10.642;2022-08-18T02:26:58;17.70;99.90
15926;DHT22;8062;53.882;10.642;2022-08-18T02:27:59;17.70;99.90
15926;DHT22;8062;53.882;10.642;2022-08-18T02:29:00;17.70;99.90
15926;DHT22;8062;53.882;10.642;2022-08-18T02:30:06;17.70;99.90
15926;DHT22;8062;53.882;10.642;2022-08-18T02:31:10;17.70;99.90
15926;DHT22;8062;53.882;10.642;2022-08-18T02:32:12;17.70;99.90
15926;DHT22;8062;53.882;10.642;2022-08-18T02:33:13;17.70;99.90
15926;DHT22;8062;53.882;10.642;2022-08-18T02:34:15;17.70;99.90
15926;DHT22;8062;53.882;10.642;2022-08-18T02:35:16;17.70;99.90
15926;DHT22;8062;53.882;10.642;2022-08-18T02:36:19;17.70;99.90
15926;DHT22;8062;53.882;10.642;2022-08-18T02:37:20;17.70;99.90
15926;DHT22;8062;53.882;10.642;2022-08-18T02:38:22;17.60;99.90
15926;DHT22;8062;53.882;10.642;2022-08-18T02:39:23;17.70;99.90
15926;DHT22;8062;53.882;10.642;2022-08-18T02:40:24;17.70;99.90
15926;DHT22;8062;53.882;10.642;2022-08-18T02:41:26;17.70;99.90
15926;DHT22;8062;53.882;10.642;2022-08-18T02:42:28;17.70;99.90
15926;DHT22;8062;53.882;10.642;2022-08-18T02:43:32;17.60;99.90
15926;DHT22;8062;53.882;10.642;2022-08-18T02:44:33;17.70;99.90
15926;DHT22;8062;53.882;10.642;2022-08-18T02:45:36;17.70;99.90
15926;DHT22;8062;53.882;10.642;2022-08-18T02:46:37;17.70;99.90
15926;DHT22;8062;53.882;10.642;2022-08-18T02:47:39;17.70;99.90
15926;DHT22;8062;53.882;10.642;2022-08-18T02:48:40;17.70;99.90
15926;DHT22;8062;53.882;10.642;2022-08-18T02:49:41;17.70;99.90
15926;DHT22;8062;53.882;10.642;2022-08-18T02:50:42;17.70;99.90
15926;DHT22;8062;53.882;10.642;2022-08-18T02:51:46;17.70;99.90
15926;DHT22;8062;53.882;10.642;2022-08-18T02:52:48;17.60;99.90
15926;DHT22;8062;53.882;10.642;2022-08-18T02:53:49;17.70;99.90
15926;DHT22;8062;53.882;10.642;2022-08-18T02:54:51;17.60;99.90
15926;DHT22;8062;53.882;10.642;2022-08-18T02:55:53;17.60;99.90
15926;DHT22;8062;53.882;10.642;2022-08-18T02:56:55;17.60;99.90
15926;DHT22;8062;53.882;10.642;2022-08-18T02:57:57;17.60;99.90
15926;DHT22;8062;53.882;10.642;2022-08-18T02:59:00;17.60;99.90
15926;DHT22;8062;53.882;10.642;2022-08-18T03:00:04;17.60;99.90
15926;DHT22;8062;53.882;10.642;2022-08-18T03:01:05;17.60;99.90
15926;DHT22;8062;53.882;10.642;2022-08-18T03:02:07;17.60;99.90
15926;DHT22;8062;53.882;10.642;2022-08-18T03:03:09;17.60;99.90
15926;DHT22;8062;53.882;10.642;2022-08-18T03:04:15;17.60;99.90
15926;DHT22;8062;53.882;10.642;2022-08-18T03:05:17;17.60;99.90
15926;DHT22;8062;53.882;10.642;2022-08-18T03:06:19;17.60;99.90
15926;DHT22;8062;53.882;10.642;2022-08-18T03:07:21;17.60;99.90
15926;DHT22;8062;53.882;10.642;2022-08-18T03:08:22;17.60;99.90
15926;DHT22;8062;53.882;10.642;2022-08-18T03:09:23;17.60;99.90
15926;DHT22;8062;53.882;10.642;2022-08-18T03:10:24;17.60;99.90
15926;DHT22;8062;53.882;10.642;2022-08-18T03:11:28;17.60;99.90
15926;DHT22;8062;53.882;10.642;2022-08-18T03:12:29;17.60;99.90
15926;DHT22;8062;53.882;10.642;2022-08-18T03:13:30;17.60;99.90
15926;DHT22;8062;53.882;10.642;2022-08-18T03:14:31;17.60;99.90
15926;DHT22;8062;53.882;10.642;2022-08-18T03:15:32;17.60;99.90
15926;DHT22;8062;53.882;10.642;2022-08-18T03:16:36;17.60;99.90
15926;DHT22;8062;53.882;10.642;2022-08-18T03:17:38;17.60;99.90
15926;DHT22;8062;53.882;10.642;2022-08-18T03:18:39;17.50;99.90
15926;DHT22;8062;53.882;10.642;2022-08-18T03:19:41;17.50;99.90
15926;DHT22;8062;53.882;10.642;2022-08-18T03:20:45;17.50;99.90
15926;DHT22;8062;53.882;10.642;2022-08-18T03:21:46;17.50;99.90
15926;DHT22;8062;53.882;10.642;2022-08-18T03:22:47;17.50;99.90
15926;DHT22;8062;53.882;10.642;2022-08-18T03:23:51;17.50;99.90
15926;DHT22;8062;53.882;10.642;2022-08-18T03:24:52;17.50;99.90
15926;DHT22;8062;53.882;10.642;2022-08-18T03:25:53;17.50;99.90
15926;DHT22;8062;53.882;10.642;2022-08-18T03:26:55;17.50;99.90
15926;DHT22;8062;53.882;10.642;2022-08-18T03:28:00;17.50;99.90
15926;DHT22;8062;53.882;10.642;2022-08-18T03:29:01;17.40;99.90
15926;DHT22;8062;53.882;10.642;2022-08-18T03:30:03;17.50;99.90
15926;DHT22;8062;53.882;10.642;2022-08-18T03:31:04;17.40;99.90
15926;DHT22;8062;53.882;10.642;2022-08-18T03:32:06;17.50;99.90
15926;DHT22;8062;53.882;10.642;2022-08-18T03:33:07;17.40;99.90
15926;DHT22;8062;53.882;10.642;2022-08-18T03:34:08;17.50;99.90
15926;DHT22;8062;53.882;10.642;2022-08-18T03:35:09;17.40;99.90
15926;DHT22;8062;53.882;10.642;2022-08-18T03:36:13;17.40;99.90
15926;DHT22;8062;53.882;10.642;2022-08-18T03:37:15;17.40;99.90
15926;DHT22;8062;53.882;10.642;2022-08-18T03:38:16;17.40;99.90
15926;DHT22;8062;53.882;10.642;2022-08-18T03:39:18;17.40;99.90
15926;DHT22;8062;53.882;10.642;2022-08-18T03:40:19;17.40;99.90
15926;DHT22;8062;53.882;10.642;2022-08-18T03:41:24;17.40;99.90
15926;DHT22;8062;53.882;10.642;2022-08-18T03:42:25;17.40;99.90
15926;DHT22;8062;53.882;10.642;2022-08-18T03:43:26;17.40;99.90
15926;DHT22;8062;53.882;10.642;2022-08-18T03:44:32;17.30;99.90
15926;DHT22;8062;53.882;10.642;2022-08-18T03:45:34;17.40;99.90
15926;DHT22;8062;53.882;10.642;2022-08-18T03:46:35;17.40;99.90
15926;DHT22;8062;53.882;10.642;2022-08-18T03:47:36;17.40;99.90
15926;DHT22;8062;53.882;10.642;2022-08-18T03:48:39;17.40;99.90
15926;DHT22;8062;53.882;10.642;2022-08-18T03:49:40;17.40;99.90
15926;DHT22;8062;53.882;10.642;2022-08-18T03:50:42;17.40;99.90
15926;DHT22;8062;53.882;10.642;2022-08-18T03:51:47;17.40;99.90
15926;DHT22;8062;53.882;10.642;2022-08-18T03:52:48;17.40;99.90
15926;DHT22;8062;53.882;10.642;2022-08-18T03:53:49;17.30;99.90
15926;DHT22;8062;53.882;10.642;2022-08-18T03:54:51;17.40;99.90
15926;DHT22;8062;53.882;10.642;2022-08-18T03:55:52;17.30;99.90
15926;DHT22;8062;53.882;10.642;2022-08-18T03:56:53;17.30;99.90
15926;DHT22;8062;53.882;10.642;2022-08-18T03:58:01;17.30;99.90
15926;DHT22;8062;53.882;10.642;2022-08-18T03:59:12;17.30;99.90
15926;DHT22;8062;53.882;10.642;2022-08-18T04:00:15;17.30;99.90
15926;DHT22;8062;53.882;10.642;2022-08-18T04:01:20;17.30;99.90
15926;DHT22;8062;53.882;10.642;2022-08-18T04:02:22;17.30;99.90
15926;DHT22;8062;53.882;10.642;2022-08-18T04:03:23;17.30;99.90
15926;DHT22;8062;53.882;10.642;2022-08-18T04:04:26;17.30;99.90
15926;DHT22;8062;53.882;10.642;2022-08-18T04:05:28;17.30;99.90
15926;DHT22;8062;53.882;10.642;2022-08-18T04:06:42;17.20;99.90
15926;DHT22;8062;53.882;10.642;2022-08-18T04:07:43;17.20;99.90
15926;DHT22;8062;53.882;10.642;2022-08-18T04:08:44;17.20;99.90
15926;DHT22;8062;53.882;10.642;2022-08-18T04:09:46;17.20;99.90
15926;DHT22;8062;53.882;10.642;2022-08-18T04:10:47;17.20;99.90
15926;DHT22;8062;53.882;10.642;2022-08-18T04:11:48;17.20;99.90
15926;DHT22;8062;53.882;10.642;2022-08-18T04:12:49;17.20;99.90
15926;DHT22;8062;53.882;10.642;2022-08-18T04:13:51;17.20;99.90
15926;DHT22;8062;53.882;10.642;2022-08-18T04:14:52;17.20;99.90
15926;DHT22;8062;53.882;10.642;2022-08-18T04:15:53;17.20;99.90
15926;DHT22;8062;53.882;10.642;2022-08-18T04:16:54;17.20;99.90
15926;DHT22;8062;53.882;10.642;2022-08-18T04:17:58;17.10;99.90
15926;DHT22;8062;53.882;10.642;2022-08-18T04:19:00;17.20;99.90
15926;DHT22;8062;53.882;10.642;2022-08-18T04:20:04;17.20;99.90
15926;DHT22;8062;53.882;10.642;2022-08-18T04:21:07;17.10;99.90
15926;DHT22;8062;53.882;10.642;2022-08-18T04:22:09;17.20;99.90
15926;DHT22;8062;53.882;10.642;2022-08-18T04:23:10;17.10;99.90
15926;DHT22;8062;53.882;10.642;2022-08-18T04:24:12;17.10;99.90
15926;DHT22;8062;53.882;10.642;2022-08-18T04:25:13;17.10;99.90
15926;DHT22;8062;53.882;10.642;2022-08-18T04:26:14;17.10;99.90
15926;DHT22;8062;53.882;10.642;2022-08-18T04:27:19;17.10;99.90
15926;DHT22;8062;53.882;10.642;2022-08-18T04:28:20;17.10;99.90
15926;DHT22;8062;53.882;10.642;2022-08-18T04:29:21;17.10;99.90
15926;DHT22;8062;53.882;10.642;2022-08-18T04:30:23;17.10;99.90
15926;DHT22;8062;53.882;10.642;2022-08-18T04:31:24;17.10;99.90
15926;DHT22;8062;53.882;10.642;2022-08-18T04:32:26;17.10;99.90
15926;DHT22;8062;53.882;10.642;2022-08-18T04:33:30;17.10;99.90
15926;DHT22;8062;53.882;10.642;2022-08-18T04:34:31;17.10;99.90
15926;DHT22;8062;53.882;10.642;2022-08-18T04:35:33;17.10;99.90
15926;DHT22;8062;53.882;10.642;2022-08-18T04:36:35;17.00;99.90
15926;DHT22;8062;53.882;10.642;2022-08-18T04:37:37;17.00;99.90
15926;DHT22;8062;53.882;10.642;2022-08-18T04:38:39;17.10;99.90
15926;DHT22;8062;53.882;10.642;2022-08-18T04:39:43;17.00;99.90
15926;DHT22;8062;53.882;10.642;2022-08-18T04:40:45;17.00;99.90
15926;DHT22;8062;53.882;10.642;2022-08-18T04:41:47;17.10;99.90
15926;DHT22;8062;53.882;10.642;2022-08-18T04:42:48;17.10;99.90
15926;DHT22;8062;53.882;10.642;2022-08-18T04:43:49;17.10;99.90
15926;DHT22;8062;53.882;10.642;2022-08-18T04:44:52;17.10;99.90
15926;DHT22;8062;53.882;10.642;2022-08-18T04:45:53;17.10;99.90
15926;DHT22;8062;53.882;10.642;2022-08-18T04:46:54;17.10;99.90
15926;DHT22;8062;53.882;10.642;2022-08-18T04:47:55;17.10;99.90
15926;DHT22;8062;53.882;10.642;2022-08-18T04:48:57;17.10;99.90
15926;DHT22;8062;53.882;10.642;2022-08-18T04:49:58;17.10;99.90
15926;DHT22;8062;53.882;10.642;2022-08-18T04:51:19;17.10;99.90
15926;DHT22;8062;53.882;10.642;2022-08-18T04:52:20;17.10;99.90
15926;DHT22;8062;53.882;10.642;2022-08-18T04:53:41;17.10;99.90
15926;DHT22;8062;53.882;10.642;2022-08-18T04:54:45;17.10;99.90
15926;DHT22;8062;53.882;10.642;2022-08-18T04:55:47;17.10;99.90
15926;DHT22;8062;53.882;10.642;2022-08-18T04:56:48;17.20;99.90
15926;DHT22;8062;53.882;10.642;2022-08-18T04:57:49;17.20;99.90
15926;DHT22;8062;53.882;10.642;2022-08-18T04:59:04;17.20;99.90
15926;DHT22;8062;53.882;10.642;2022-08-18T05:00:07;17.20;99.90
15926;DHT22;8062;53.882;10.642;2022-08-18T05:01:10;17.20;99.90
15926;DHT22;8062;53.882;10.642;2022-08-18T05:02:13;17.30;99.90
15926;DHT22;8062;53.882;10.642;2022-08-18T05:03:14;17.30;99.90
15926;DHT22;8062;53.882;10.642;2022-08-18T05:04:16;17.40;99.90
15926;DHT22;8062;53.882;10.642;2022-08-18T05:05:17;17.40;99.90
15926;DHT22;8062;53.882;10.642;2022-08-18T05:06:21;17.40;99.90
15926;DHT22;8062;53.882;10.642;2022-08-18T05:07:25;17.40;99.90
15926;DHT22;8062;53.882;10.642;2022-08-18T05:08:26;17.40;99.90
15926;DHT22;8062;53.882;10.642;2022-08-18T05:09:27;17.50;99.90
15926;DHT22;8062;53.882;10.642;2022-08-18T05:10:28;17.50;99.90
15926;DHT22;8062;53.882;10.642;2022-08-18T05:11:30;17.50;99.90
15926;DHT22;8062;53.882;10.642;2022-08-18T05:12:34;17.60;99.90
15926;DHT22;8062;53.882;10.642;2022-08-18T05:13:36;17.60;99.90
15926;DHT22;8062;53.882;10.642;2022-08-18T05:14:37;17.60;99.90
15926;DHT22;8062;53.882;10.642;2022-08-18T05:15:39;17.70;99.90
15926;DHT22;8062;53.882;10.642;2022-08-18T05:16:40;17.80;99.90
15926;DHT22;8062;53.882;10.642;2022-08-18T05:17:41;17.80;99.90
15926;DHT22;8062;53.882;10.642;2022-08-18T05:18:43;17.90;99.90
15926;DHT22;8062;53.882;10.642;2022-08-18T05:19:44;17.90;99.90
15926;DHT22;8062;53.882;10.642;2022-08-18T05:20:45;18.00;99.90
15926;DHT22;8062;53.882;10.642;2022-08-18T05:21:47;18.00;99.90
15926;DHT22;8062;53.882;10.642;2022-08-18T05:22:48;18.10;99.90
15926;DHT22;8062;53.882;10.642;2022-08-18T05:23:49;18.10;99.90
15926;DHT22;8062;53.882;10.642;2022-08-18T05:24:50;18.10;99.90
15926;DHT22;8062;53.882;10.642;2022-08-18T05:26:02;18.10;99.90
15926;DHT22;8062;53.882;10.642;2022-08-18T05:27:06;18.20;99.90
15926;DHT22;8062;53.882;10.642;2022-08-18T05:28:07;18.20;99.90
15926;DHT22;8062;53.882;10.642;2022-08-18T05:29:09;18.20;99.90
15926;DHT22;8062;53.882;10.642;2022-08-18T05:30:11;18.20;99.90
15926;DHT22;8062;53.882;10.642;2022-08-18T05:31:16;18.30;99.90
15926;DHT22;8062;53.882;10.642;2022-08-18T05:32:18;18.30;99.90
15926;DHT22;8062;53.882;10.642;2022-08-18T05:33:19;18.30;99.90
15926;DHT22;8062;53.882;10.642;2022-08-18T05:34:21;18.40;99.90
15926;DHT22;8062;53.882;10.642;2022-08-18T05:35:27;18.40;99.90
15926;DHT22;8062;53.882;10.642;2022-08-18T05:40:22;18.50;99.90
15926;DHT22;8062;53.882;10.642;2022-08-18T05:42:33;18.50;99.90
15926;DHT22;8062;53.882;10.642;2022-08-18T05:43:36;18.60;99.90
15926;DHT22;8062;53.882;10.642;2022-08-18T05:44:45;18.60;99.90
15926;DHT22;8062;53.882;10.642;2022-08-18T05:45:48;18.70;99.90
15926;DHT22;8062;53.882;10.642;2022-08-18T05:47:59;18.80;99.90
15926;DHT22;8062;53.882;10.642;2022-08-18T05:49:01;18.90;99.90
15926;DHT22;8062;53.882;10.642;2022-08-18T05:50:09;18.90;99.90
15926;DHT22;8062;53.882;10.642;2022-08-18T05:51:16;19.00;99.90
15926;DHT22;8062;53.882;10.642;2022-08-18T05:52:22;19.00;99.90
15926;DHT22;8062;53.882;10.642;2022-08-18T05:53:25;19.00;99.90
15926;DHT22;8062;53.882;10.642;2022-08-18T05:54:53;19.00;99.90
15926;DHT22;8062;53.882;10.642;2022-08-18T05:56:17;19.00;99.90
15926;DHT22;8062;53.882;10.642;2022-08-18T05:57:47;19.10;99.90
15926;DHT22;8062;53.882;10.642;2022-08-18T05:58:53;19.20;99.90
15926;DHT22;8062;53.882;10.642;2022-08-18T05:59:56;19.20;99.90
15926;DHT22;8062;53.882;10.642;2022-08-18T06:01:02;19.30;99.90
15926;DHT22;8062;53.882;10.642;2022-08-18T06:04:18;19.40;99.90
15926;DHT22;8062;53.882;10.642;2022-08-18T06:05:03;19.40;99.90
15926;DHT22;8062;53.882;10.642;2022-08-18T06:06:12;19.40;99.90
15926;DHT22;8062;53.882;10.642;2022-08-18T06:08:47;19.40;99.90
15926;DHT22;8062;53.882;10.642;2022-08-18T06:09:52;19.40;99.90
15926;DHT22;8062;53.882;10.642;2022-08-18T06:10:54;19.40;99.90
15926;DHT22;8062;53.882;10.642;2022-08-18T06:12:06;19.40;99.90
15926;DHT22;8062;53.882;10.642;2022-08-18T06:13:10;19.40;99.90
15926;DHT22;8062;53.882;10.642;2022-08-18T06:14:11;19.30;99.90
15926;DHT22;8062;53.882;10.642;2022-08-18T06:15:24;19.30;99.90
15926;DHT22;8062;53.882;10.642;2022-08-18T06:16:30;19.40;99.90
15926;DHT22;8062;53.882;10.642;2022-08-18T06:17:46;19.40;99.90
15926;DHT22;8062;53.882;10.642;2022-08-18T06:19:11;19.40;99.90
15926;DHT22;8062;53.882;10.642;2022-08-18T06:20:28;19.50;99.90
15926;DHT22;8062;53.882;10.642;2022-08-18T06:22:17;19.50;99.90
15926;DHT22;8062;53.882;10.642;2022-08-18T06:25:06;19.50;99.90
15926;DHT22;8062;53.882;10.642;2022-08-18T06:26:38;19.50;99.90
15926;DHT22;8062;53.882;10.642;2022-08-18T06:28:01;19.60;99.90
15926;DHT22;8062;53.882;10.642;2022-08-18T06:29:43;19.60;99.90
15926;DHT22;8062;53.882;10.642;2022-08-18T06:30:59;19.70;99.90
15926;DHT22;8062;53.882;10.642;2022-08-18T06:34:10;19.60;99.90
15926;DHT22;8062;53.882;10.642;2022-08-18T06:37:51;19.70;99.90
15926;DHT22;8062;53.882;10.642;2022-08-18T06:39:34;19.70;99.90
15926;DHT22;8062;53.882;10.642;2022-08-18T06:40:36;19.60;99.90
15926;DHT22;8062;53.882;10.642;2022-08-18T06:41:42;19.70;99.90
15926;DHT22;8062;53.882;10.642;2022-08-18T06:42:44;19.80;99.90
15926;DHT22;8062;53.882;10.642;2022-08-18T06:43:58;19.80;99.90
15926;DHT22;8062;53.882;10.642;2022-08-18T06:45:04;19.80;99.90
15926;DHT22;8062;53.882;10.642;2022-08-18T06:46:16;19.80;99.90
15926;DHT22;8062;53.882;10.642;2022-08-18T06:48:53;19.70;99.90
15926;DHT22;8062;53.882;10.642;2022-08-18T06:50:25;19.70;99.90
15926;DHT22;8062;53.882;10.642;2022-08-18T06:51:28;19.80;99.90
15926;DHT22;8062;53.882;10.642;2022-08-18T06:52:53;19.80;99.90
15926;DHT22;8062;53.882;10.642;2022-08-18T06:54:07;19.90;99.90
15926;DHT22;8062;53.882;10.642;2022-08-18T06:57:53;19.90;99.90
15926;DHT22;8062;53.882;10.642;2022-08-18T06:59:26;19.80;99.90
15926;DHT22;8062;53.882;10.642;2022-08-18T07:00:33;19.70;99.90
15926;DHT22;8062;53.882;10.642;2022-08-18T07:01:37;19.70;99.90
15926;DHT22;8062;53.882;10.642;2022-08-18T07:03:59;19.70;99.90
15926;DHT22;8062;53.882;10.642;2022-08-18T07:05:07;19.80;99.90
15926;DHT22;8062;53.882;10.642;2022-08-18T07:06:24;19.90;99.90
15926;DHT22;8062;53.882;10.642;2022-08-18T07:07:37;19.90;99.90
15926;DHT22;8062;53.882;10.642;2022-08-18T07:08:41;20.00;99.90